createdAt,value
2023-05-02T00:00:02.636Z,57.46
2023-05-02T00:02:51.987Z,57.77
2023-05-02T00:05:19.472Z,57.82
2023-05-02T00:07:46.743Z,57.30
2023-05-02T00:10:13.948Z,57.69
2023-05-02T00:12:41.363Z,57.44
2023-05-02T00:15:09.572Z,57.51
2023-05-02T00:17:37.145Z,58.01
2023-05-02T00:20:05.017Z,58.26
2023-05-02T00:22:32.351Z,58.57
2023-05-02T00:24:59.946Z,58.60
2023-05-02T00:27:26.988Z,58.83
2023-05-02T00:29:55.233Z,58.77
2023-05-02T00:32:22.208Z,58.96
2023-05-02T00:34:49.684Z,58.89
2023-05-02T00:37:16.721Z,58.95
2023-05-02T00:39:45.056Z,58.90
2023-05-02T00:42:12.152Z,58.97
2023-05-02T00:44:40.567Z,59.60
2023-05-02T00:47:08.062Z,59.31
2023-05-02T00:49:35.556Z,59.61
2023-05-02T00:52:03.308Z,59.80
2023-05-02T00:54:31.371Z,59.44
2023-05-02T00:56:58.984Z,59.91
2023-05-02T00:59:28.313Z,59.80
2023-05-02T01:02:10.310Z,59.78
2023-05-02T01:04:40.922Z,59.66
2023-05-02T01:07:27.612Z,59.57
2023-05-02T01:10:30.871Z,59.70
2023-05-02T01:13:07.938Z,59.71
2023-05-02T01:15:39.592Z,59.65
2023-05-02T01:18:09.659Z,59.56
2023-05-02T01:20:42.002Z,59.71
2023-05-02T01:23:23.512Z,60.00
2023-05-02T01:26:09.912Z,59.75
2023-05-02T01:28:53.438Z,60.47
2023-05-02T01:31:23.736Z,59.86
2023-05-02T01:33:52.353Z,59.96
2023-05-02T01:36:20.936Z,59.83
2023-05-02T01:38:50.693Z,59.37
2023-05-02T01:41:19.414Z,59.85
2023-05-02T01:43:48.924Z,59.87
2023-05-02T01:46:17.658Z,60.26
2023-05-02T01:48:47.914Z,60.03
2023-05-02T01:51:18.065Z,60.17
2023-05-02T01:53:49.299Z,59.86
2023-05-02T01:56:20.104Z,60.35
2023-05-02T01:58:49.770Z,60.68
2023-05-02T02:01:18.454Z,60.90
2023-05-02T02:03:47.088Z,61.77
2023-05-02T02:06:16.182Z,61.87
2023-05-02T02:08:43.711Z,61.82
2023-05-02T02:11:17.111Z,61.89
2023-05-02T02:13:53.107Z,62.15
2023-05-02T02:16:25.819Z,62.46
2023-05-02T02:18:56.627Z,62.67
2023-05-02T02:21:27.133Z,62.89
2023-05-02T02:23:57.688Z,63.05
2023-05-02T02:26:25.001Z,62.90
2023-05-02T02:28:52.484Z,62.99
2023-05-02T02:31:20.750Z,63.21
2023-05-02T02:33:48.949Z,63.32
2023-05-02T02:36:24.788Z,63.44
2023-05-02T02:39:16.701Z,63.53
2023-05-02T02:42:08.108Z,63.73
2023-05-02T02:44:47.794Z,63.37
2023-05-02T02:47:47.531Z,63.55
2023-05-02T02:50:36.632Z,63.62
2023-05-02T02:53:15.136Z,63.70
2023-05-02T02:55:57.888Z,63.56
2023-05-02T02:59:04.877Z,64.13
2023-05-02T03:01:34.192Z,64.03
2023-05-02T03:04:06.085Z,64.20
2023-05-02T03:06:33.546Z,64.35
2023-05-02T03:09:01.767Z,64.32
2023-05-02T03:11:30.409Z,64.92
2023-05-02T03:13:58.737Z,64.85
2023-05-02T03:16:40.368Z,64.49
2023-05-02T03:19:12.508Z,64.97
2023-05-02T03:21:39.720Z,65.31
2023-05-02T03:24:13.618Z,64.92
2023-05-02T03:26:40.705Z,65.11
2023-05-02T03:29:11.136Z,65.47
2023-05-02T03:31:41.748Z,65.31
2023-05-02T03:34:09.246Z,65.49
2023-05-02T03:36:37.695Z,65.27
2023-05-02T03:39:05.103Z,65.09
2023-05-02T03:41:32.230Z,65.34
2023-05-02T03:44:05.601Z,65.39
2023-05-02T03:46:33.103Z,65.20
2023-05-02T03:49:01.836Z,64.68
2023-05-02T03:51:28.926Z,64.70
2023-05-02T03:53:58.548Z,64.74
2023-05-02T03:56:26.605Z,64.29
2023-05-02T03:59:12.158Z,64.50
2023-05-02T04:01:39.979Z,64.31
2023-05-02T04:04:08.878Z,64.13
2023-05-02T04:06:42.212Z,64.90
2023-05-02T04:09:10.816Z,64.37
2023-05-02T04:11:45.823Z,64.27
2023-05-02T04:14:14.021Z,63.61
2023-05-02T04:16:48.265Z,63.64
2023-05-02T04:19:19.122Z,63.31
2023-05-02T04:21:46.237Z,62.87
2023-05-02T04:24:15.022Z,63.04
2023-05-02T04:26:42.743Z,62.57
2023-05-02T04:29:13.809Z,62.43
2023-05-02T04:31:41.934Z,62.34
2023-05-02T04:34:10.446Z,62.03
2023-05-02T04:36:45.108Z,61.35
2023-05-02T04:39:15.658Z,61.31
2023-05-02T04:41:50.355Z,61.02
2023-05-02T04:44:18.417Z,61.41
2023-05-02T04:46:46.163Z,59.96
2023-05-02T04:49:13.928Z,60.07
2023-05-02T04:51:41.796Z,60.33
2023-05-02T04:54:10.106Z,59.98
2023-05-02T04:56:37.537Z,59.78
2023-05-02T04:59:05.354Z,59.73
2023-05-02T05:01:33.466Z,59.40
2023-05-02T05:04:03.155Z,59.56
2023-05-02T05:06:32.031Z,58.92
2023-05-02T05:09:00.190Z,58.95
2023-05-02T05:11:27.102Z,58.82
2023-05-02T05:13:54.560Z,58.61
2023-05-02T05:16:22.621Z,57.93
2023-05-02T05:18:53.880Z,58.24
2023-05-02T05:21:21.441Z,57.35
2023-05-02T05:23:49.454Z,57.00
2023-05-02T05:26:25.411Z,56.68
2023-05-02T05:28:53.394Z,55.79
2023-05-02T05:31:24.129Z,55.53
2023-05-02T05:33:55.369Z,55.30
2023-05-02T05:36:24.157Z,54.53
2023-05-02T05:38:52.417Z,54.34
2023-05-02T05:41:20.297Z,53.94
2023-05-02T05:43:52.391Z,53.56
2023-05-02T05:46:20.417Z,53.24
2023-05-02T05:48:47.641Z,53.05
2023-05-02T05:51:15.228Z,52.89
2023-05-02T05:53:42.516Z,52.77
2023-05-02T05:56:13.110Z,52.09
2023-05-02T05:58:50.396Z,51.89
2023-05-02T06:01:17.691Z,51.54
2023-05-02T06:03:45.978Z,51.48
2023-05-02T06:06:15.635Z,51.27
2023-05-02T06:08:43.048Z,51.07
2023-05-02T06:11:11.968Z,51.11
2023-05-02T06:13:39.281Z,50.97
2023-05-02T06:16:07.666Z,50.28
2023-05-02T06:18:35.815Z,50.06
2023-05-02T06:21:06.992Z,50.13
2023-05-02T06:23:34.708Z,49.93
2023-05-02T06:26:02.963Z,49.69
2023-05-02T06:28:30.859Z,49.49
2023-05-02T06:31:06.130Z,49.01
2023-05-02T06:33:34.485Z,49.19
2023-05-02T06:36:02.285Z,49.37
2023-05-02T06:38:30.337Z,49.78
2023-05-02T06:40:57.305Z,49.89
2023-05-02T06:43:24.932Z,50.15
2023-05-02T06:45:59.063Z,50.16
2023-05-02T06:48:26.363Z,50.02
2023-05-02T06:50:54.071Z,50.08
2023-05-02T06:53:21.595Z,49.65
2023-05-02T06:55:49.263Z,49.55
2023-05-02T06:58:17.016Z,49.64
2023-05-02T07:00:43.988Z,49.44
2023-05-02T07:03:11.568Z,49.72
2023-05-02T07:05:38.746Z,49.65
2023-05-02T07:08:06.793Z,49.31
2023-05-02T07:10:33.917Z,49.13
2023-05-02T07:13:01.675Z,48.59
2023-05-02T07:15:29.194Z,48.99
2023-05-02T07:17:56.552Z,48.58
2023-05-02T07:20:23.820Z,47.94
2023-05-02T07:22:51.495Z,47.58
2023-05-02T07:25:18.325Z,47.85
2023-05-02T07:27:45.822Z,47.51
2023-05-02T07:30:13.335Z,47.18
2023-05-02T07:32:41.117Z,46.44
2023-05-02T07:35:08.953Z,46.08
2023-05-02T07:37:36.978Z,45.14
2023-05-02T07:40:04.729Z,45.30
2023-05-02T07:42:32.954Z,43.22
2023-05-02T07:45:00.559Z,43.89
2023-05-02T07:47:28.307Z,43.40
2023-05-02T07:49:56.487Z,42.53
2023-05-02T07:52:24.242Z,42.69
2023-05-02T07:54:51.837Z,42.68
2023-05-02T07:57:20.011Z,42.88
2023-05-02T07:59:48.569Z,42.99
2023-05-02T08:02:17.881Z,43.48
2023-05-02T08:04:45.263Z,42.94
2023-05-02T08:07:13.453Z,42.70
2023-05-02T08:09:42.204Z,42.40
2023-05-02T08:12:10.401Z,42.47
2023-05-02T08:14:37.479Z,43.23
2023-05-02T08:17:05.906Z,42.79
2023-05-02T08:19:33.431Z,42.36
2023-05-02T08:22:01.488Z,42.50
2023-05-02T08:24:28.777Z,42.34
2023-05-02T08:26:56.018Z,42.99
2023-05-02T08:29:24.735Z,42.85
2023-05-02T08:31:52.696Z,42.69
2023-05-02T08:34:19.938Z,42.65
2023-05-02T08:36:48.542Z,42.95
2023-05-02T08:39:17.489Z,42.93
2023-05-02T08:41:46.057Z,42.32
2023-05-02T08:44:13.459Z,42.44
2023-05-02T08:46:43.161Z,42.84
2023-05-02T08:49:11.461Z,42.15
2023-05-02T08:51:41.316Z,42.25
2023-05-02T08:54:10.179Z,42.56
2023-05-02T08:56:38.033Z,42.13
2023-05-02T08:59:06.889Z,41.71
2023-05-02T09:01:36.282Z,42.09
2023-05-02T09:04:03.498Z,42.49
2023-05-02T09:06:31.140Z,42.59
2023-05-02T09:09:00.637Z,41.53
2023-05-02T09:11:29.360Z,41.54
2023-05-02T09:13:59.342Z,41.23
2023-05-02T09:16:27.511Z,40.61
2023-05-02T09:18:57.078Z,40.71
2023-05-02T09:21:26.796Z,40.42
2023-05-02T09:23:59.475Z,40.80
2023-05-02T09:26:35.198Z,40.68
2023-05-02T09:29:04.975Z,40.04
2023-05-02T09:31:54.856Z,40.36
2023-05-02T09:34:23.467Z,40.39
2023-05-02T09:36:54.471Z,40.67
2023-05-02T09:39:29.933Z,40.47
2023-05-02T09:41:59.997Z,41.39
2023-05-02T09:44:36.487Z,41.17
2023-05-02T09:47:07.126Z,41.22
2023-05-02T09:49:46.141Z,41.40
2023-05-02T09:52:16.416Z,41.54
2023-05-02T09:54:47.091Z,41.08
2023-05-02T09:57:14.989Z,41.27
2023-05-02T09:59:52.882Z,41.51
2023-05-02T10:02:22.026Z,41.43
2023-05-02T10:04:51.329Z,40.85
2023-05-02T10:07:19.515Z,40.43
2023-05-02T10:09:50.266Z,41.03
2023-05-02T10:12:22.584Z,42.07
2023-05-02T10:14:55.902Z,41.83
2023-05-02T10:17:31.193Z,41.98
2023-05-02T10:20:05.496Z,42.50
2023-05-02T10:22:36.951Z,41.78
2023-05-02T10:25:05.148Z,42.14
2023-05-02T10:27:33.231Z,42.09
2023-05-02T10:30:02.466Z,43.47
2023-05-02T10:32:30.378Z,44.16
2023-05-02T10:34:59.112Z,44.84
2023-05-02T10:37:28.036Z,45.49
2023-05-02T10:39:55.417Z,46.17
2023-05-02T10:42:23.870Z,46.39
2023-05-02T10:44:51.285Z,47.29
2023-05-02T10:47:22.726Z,47.56
2023-05-02T10:49:54.510Z,48.72
2023-05-02T10:52:41.728Z,49.04
2023-05-02T10:55:24.436Z,50.04
2023-05-02T10:57:57.786Z,49.81
2023-05-02T11:00:30.182Z,50.78
2023-05-02T11:02:58.065Z,50.53
2023-05-02T11:05:26.315Z,51.10
2023-05-02T11:08:15.415Z,51.49
2023-05-02T11:10:42.954Z,51.75
2023-05-02T11:13:10.531Z,52.50
2023-05-02T11:15:40.545Z,52.55
2023-05-02T11:18:08.203Z,53.34
2023-05-02T11:20:36.634Z,55.12
2023-05-02T11:23:16.585Z,57.52
2023-05-02T11:25:57.406Z,59.90
2023-05-02T11:28:36.954Z,61.60
2023-05-02T11:31:05.733Z,63.44
2023-05-02T11:33:33.418Z,64.15
2023-05-02T11:36:00.859Z,65.48
2023-05-02T11:38:36.864Z,67.08
2023-05-02T11:41:04.693Z,68.02
2023-05-02T11:43:32.764Z,66.39
2023-05-02T11:46:02.611Z,66.07
2023-05-02T11:48:31.143Z,65.25
2023-05-02T11:51:05.004Z,63.88
2023-05-02T11:53:33.517Z,62.68
2023-05-02T11:56:05.097Z,61.05
2023-05-02T11:58:33.899Z,59.99
2023-05-02T12:01:15.206Z,60.03
2023-05-02T12:03:43.665Z,59.02
2023-05-02T12:06:13.267Z,57.59
2023-05-02T12:08:42.960Z,57.48
2023-05-02T12:11:12.978Z,56.57
2023-05-02T12:13:50.866Z,56.63
2023-05-02T12:16:19.997Z,57.14
2023-05-02T12:18:48.331Z,55.66
2023-05-02T12:21:16.107Z,54.91
2023-05-02T12:23:44.116Z,55.53
2023-05-02T12:26:22.493Z,54.26
2023-05-02T12:28:52.280Z,53.53
2023-05-02T12:31:19.894Z,52.05
2023-05-02T12:33:48.823Z,50.88
2023-05-02T12:36:16.575Z,50.50
2023-05-02T12:38:55.153Z,50.81
2023-05-02T12:41:36.639Z,52.22
2023-05-02T12:44:05.711Z,51.56
2023-05-02T12:46:33.304Z,50.15
2023-05-02T12:49:09.382Z,49.40
2023-05-02T12:51:38.274Z,49.56
2023-05-02T12:54:06.851Z,50.36
2023-05-02T12:56:43.934Z,49.82
2023-05-02T12:59:27.109Z,48.88
2023-05-02T13:01:54.688Z,44.29
2023-05-02T13:04:22.368Z,44.41
2023-05-02T13:06:50.363Z,45.30
2023-05-02T13:09:18.849Z,46.92
2023-05-02T13:11:46.166Z,47.21
2023-05-02T13:14:13.619Z,47.98
2023-05-02T13:16:41.176Z,46.89
2023-05-02T13:19:09.022Z,47.40
2023-05-02T13:21:36.008Z,47.64
2023-05-02T13:24:04.382Z,47.66
2023-05-02T13:26:32.243Z,46.36
2023-05-02T13:28:59.407Z,46.81
2023-05-02T13:31:26.860Z,46.39
2023-05-02T13:33:54.279Z,46.20
2023-05-02T13:36:21.613Z,47.22
2023-05-02T13:38:48.949Z,47.06
2023-05-02T13:41:16.701Z,47.14
2023-05-02T13:43:44.071Z,45.42
2023-05-02T13:46:11.280Z,45.19
2023-05-02T13:48:38.683Z,45.19
2023-05-02T13:51:06.133Z,43.28
2023-05-02T13:53:33.368Z,43.72
2023-05-02T13:56:00.666Z,42.88
2023-05-02T13:58:27.995Z,42.12
2023-05-02T14:00:55.042Z,42.27
2023-05-02T14:03:22.403Z,43.11
2023-05-02T14:05:50.004Z,42.79
2023-05-02T14:08:19.237Z,42.30
2023-05-02T14:10:46.387Z,42.43
2023-05-02T14:13:13.846Z,42.48
2023-05-02T14:15:41.080Z,42.70
2023-05-02T14:18:09.109Z,43.58
2023-05-02T14:20:36.457Z,43.66
2023-05-02T14:23:05.179Z,43.17
2023-05-02T14:25:33.901Z,41.48
2023-05-02T14:28:02.624Z,41.94
2023-05-02T14:30:30.294Z,42.44
2023-05-02T14:32:59.366Z,43.19
2023-05-02T14:35:27.696Z,42.99
2023-05-02T14:37:55.651Z,42.55
2023-05-02T14:40:22.796Z,42.73
2023-05-02T14:42:50.414Z,44.21
2023-05-02T14:45:17.404Z,44.20
2023-05-02T14:47:45.207Z,43.93
2023-05-02T14:50:12.776Z,43.60
2023-05-02T14:52:41.109Z,43.88
2023-05-02T14:55:09.402Z,43.78
2023-05-02T14:57:37.235Z,43.81
2023-05-02T15:00:08.556Z,43.60
2023-05-02T15:02:36.867Z,43.37
2023-05-02T15:05:07.585Z,43.18
2023-05-02T15:07:35.405Z,43.84
2023-05-02T15:10:02.714Z,43.87
2023-05-02T15:12:31.110Z,44.18
2023-05-02T15:14:58.781Z,43.71
2023-05-02T15:17:26.671Z,43.54
2023-05-02T15:19:55.844Z,43.99
2023-05-02T15:22:26.077Z,43.32
2023-05-02T15:24:53.526Z,43.25
2023-05-02T15:27:20.733Z,43.90
2023-05-02T15:29:47.718Z,43.45
2023-05-02T15:32:15.198Z,43.58
2023-05-02T15:34:43.936Z,43.36
2023-05-02T15:37:12.679Z,42.85
2023-05-02T15:39:39.733Z,42.91
2023-05-02T15:42:07.512Z,43.05
2023-05-02T15:44:37.921Z,43.08
2023-05-02T15:47:05.928Z,42.87
2023-05-02T15:49:34.655Z,43.20
2023-05-02T15:52:03.001Z,42.99
2023-05-02T15:54:31.922Z,42.54
2023-05-02T15:56:59.188Z,42.42
2023-05-02T15:59:26.326Z,42.69
2023-05-02T16:01:53.654Z,42.93
2023-05-02T16:04:20.730Z,43.40
2023-05-02T16:06:48.110Z,43.25
2023-05-02T16:09:15.288Z,43.23
2023-05-02T16:11:42.621Z,42.73
2023-05-02T16:14:10.127Z,43.06
2023-05-02T16:16:37.596Z,43.06
2023-05-02T16:19:04.714Z,43.00
2023-05-02T16:21:32.078Z,43.27
2023-05-02T16:23:59.934Z,42.91
2023-05-02T16:26:28.167Z,43.42
2023-05-02T16:28:57.047Z,44.02
2023-05-02T16:31:27.260Z,43.53
2023-05-02T16:33:54.426Z,43.85
2023-05-02T16:36:21.912Z,43.95
2023-05-02T16:38:49.314Z,44.51
2023-05-02T16:41:16.729Z,44.70
2023-05-02T16:43:44.019Z,44.58
2023-05-02T16:46:11.534Z,44.91
2023-05-02T16:48:38.500Z,44.98
2023-05-02T16:51:06.009Z,45.46
2023-05-02T16:53:33.077Z,45.64
2023-05-02T16:56:00.785Z,46.00
2023-05-02T16:58:29.231Z,46.23
2023-05-02T17:00:59.158Z,46.89
2023-05-02T17:03:27.126Z,47.13
2023-05-02T17:05:58.909Z,47.23
2023-05-02T17:08:26.167Z,47.43
2023-05-02T17:10:53.853Z,48.01
2023-05-02T17:13:22.237Z,48.12
2023-05-02T17:15:50.200Z,48.42
2023-05-02T17:18:17.376Z,48.65
2023-05-02T17:20:46.168Z,48.68
2023-05-02T17:23:13.605Z,49.03
2023-05-02T17:25:42.087Z,49.21
2023-05-02T17:28:09.116Z,49.44
2023-05-02T17:30:37.095Z,49.90
2023-05-02T17:33:04.264Z,50.26
2023-05-02T17:35:31.875Z,50.42
2023-05-02T17:37:58.949Z,50.78
2023-05-02T17:40:26.754Z,50.82
2023-05-02T17:42:55.504Z,51.06
2023-05-02T17:45:23.323Z,50.99
2023-05-02T17:47:50.671Z,51.22
2023-05-02T17:50:18.323Z,51.48
2023-05-02T17:52:45.745Z,51.90
2023-05-02T17:55:13.129Z,52.09
2023-05-02T17:57:40.323Z,52.59
2023-05-02T18:00:08.230Z,52.70
2023-05-02T18:02:38.511Z,52.94
2023-05-02T18:05:06.961Z,53.12
2023-05-02T18:07:34.176Z,53.29
2023-05-02T18:10:02.458Z,53.76
2023-05-02T18:12:29.665Z,53.77
2023-05-02T18:14:57.299Z,54.19
2023-05-02T18:17:24.375Z,54.54
2023-05-02T18:19:51.713Z,54.66
2023-05-02T18:22:21.838Z,54.63
2023-05-02T18:24:49.857Z,54.91
2023-05-02T18:27:18.036Z,54.99
2023-05-02T18:29:45.474Z,55.01
2023-05-02T18:32:12.884Z,55.30
2023-05-02T18:34:40.209Z,55.74
2023-05-02T18:37:08.112Z,56.14
2023-05-02T18:39:36.425Z,56.30
2023-05-02T18:42:04.401Z,56.19
2023-05-02T18:44:31.969Z,56.26
2023-05-02T18:46:59.672Z,56.09
2023-05-02T18:49:27.096Z,56.29
2023-05-02T18:51:55.384Z,56.19
2023-05-02T18:54:26.493Z,56.38
2023-05-02T18:56:53.424Z,56.37
2023-05-02T18:59:21.191Z,56.30
2023-05-02T19:01:48.940Z,56.15
2023-05-02T19:04:16.220Z,55.79
2023-05-02T19:06:43.453Z,55.85
2023-05-02T19:09:13.826Z,55.50
2023-05-02T19:11:43.958Z,54.59
2023-05-02T19:14:11.903Z,54.55
2023-05-02T19:16:40.753Z,54.65
2023-05-02T19:19:08.557Z,55.08
2023-05-02T19:21:35.759Z,54.25
2023-05-02T19:24:03.968Z,53.97
2023-05-02T19:26:30.977Z,54.05
2023-05-02T19:28:58.508Z,54.07
2023-05-02T19:31:25.931Z,54.20
2023-05-02T19:33:54.836Z,54.68
2023-05-02T19:36:23.709Z,55.05
2023-05-02T19:38:54.144Z,55.36
2023-05-02T19:41:24.846Z,55.97
2023-05-02T19:43:52.886Z,56.02
2023-05-02T19:46:19.916Z,56.13
2023-05-02T19:48:47.293Z,56.47
2023-05-02T19:51:14.558Z,58.19
2023-05-02T19:53:42.412Z,59.16
2023-05-02T19:56:09.400Z,59.39
2023-05-02T19:58:37.282Z,60.08
2023-05-02T20:01:04.437Z,61.04
2023-05-02T20:03:32.092Z,60.81
2023-05-02T20:05:59.244Z,62.24
2023-05-02T20:08:28.198Z,62.79
2023-05-02T20:10:55.933Z,63.09
2023-05-02T20:13:24.566Z,63.45
2023-05-02T20:15:52.866Z,64.27
2023-05-02T20:18:21.010Z,64.30
2023-05-02T20:20:48.177Z,64.24
2023-05-02T20:23:16.111Z,64.06
2023-05-02T20:25:43.894Z,64.48
2023-05-02T20:28:12.175Z,64.80
2023-05-02T20:30:39.889Z,64.76
2023-05-02T20:33:15.642Z,64.91
2023-05-02T20:35:44.210Z,65.10
2023-05-02T20:38:12.123Z,65.22
2023-05-02T20:40:40.809Z,65.56
2023-05-02T20:43:08.872Z,66.07
2023-05-02T20:45:36.250Z,66.12
2023-05-02T20:48:03.790Z,66.91
2023-05-02T20:50:31.559Z,67.24
2023-05-02T20:52:59.382Z,67.84
2023-05-02T20:55:26.606Z,68.65
2023-05-02T20:57:54.030Z,68.99
2023-05-02T21:00:24.010Z,69.13
2023-05-02T21:02:51.532Z,68.68
2023-05-02T21:05:18.676Z,69.08
2023-05-02T21:07:46.550Z,69.42
2023-05-02T21:10:14.049Z,69.73
2023-05-02T21:12:41.473Z,70.16
2023-05-02T21:15:08.728Z,70.65
2023-05-02T21:17:38.869Z,71.15
2023-05-02T21:20:07.044Z,71.59
2023-05-02T21:22:34.390Z,72.16
2023-05-02T21:25:01.716Z,72.83
2023-05-02T21:27:29.301Z,73.22
2023-05-02T21:29:56.652Z,73.59
2023-05-02T21:32:24.122Z,74.12
2023-05-02T21:34:51.313Z,74.38
2023-05-02T21:37:18.598Z,74.21
2023-05-02T21:39:46.022Z,74.44
2023-05-02T21:42:13.402Z,74.40
2023-05-02T21:44:40.830Z,74.60
2023-05-02T21:47:08.252Z,74.53
2023-05-02T21:49:35.339Z,74.86
2023-05-02T21:52:03.566Z,78.27
2023-05-02T21:54:30.618Z,83.58
2023-05-02T21:56:59.232Z,86.27
2023-05-02T21:59:26.366Z,89.70
2023-05-02T22:01:53.813Z,92.03
2023-05-02T22:04:20.973Z,94.49
2023-05-02T22:06:52.239Z,96.72
2023-05-02T22:09:19.537Z,97.97
2023-05-02T22:11:47.551Z,99.03
2023-05-02T22:14:14.427Z,99.67
2023-05-02T22:16:42.170Z,100.00
2023-05-02T22:19:11.707Z,100.00
2023-05-02T22:21:39.345Z,100.00
2023-05-02T22:24:06.609Z,100.00
2023-05-02T22:26:34.033Z,100.00
2023-05-02T22:29:01.197Z,100.00
2023-05-02T22:31:28.887Z,100.00
2023-05-02T22:33:56.544Z,99.57
2023-05-02T22:36:24.162Z,97.76
2023-05-02T22:38:51.090Z,96.18
2023-05-02T22:41:18.239Z,95.44
2023-05-02T22:43:45.560Z,95.16
2023-05-02T22:46:13.308Z,90.66
2023-05-02T22:48:40.776Z,90.76
2023-05-02T22:51:08.138Z,90.73
2023-05-02T22:53:35.488Z,88.61
2023-05-02T22:56:03.438Z,87.19
2023-05-02T22:58:30.719Z,83.20
2023-05-02T23:00:58.298Z,82.80
2023-05-02T23:03:25.674Z,82.48
2023-05-02T23:05:52.786Z,81.21
2023-05-02T23:08:20.194Z,81.92
2023-05-02T23:10:47.734Z,81.61
2023-05-02T23:13:14.981Z,81.45
2023-05-02T23:15:42.285Z,81.73
2023-05-02T23:18:09.355Z,81.68
2023-05-02T23:20:37.108Z,80.51
2023-05-02T23:23:05.237Z,79.78
2023-05-02T23:25:33.588Z,77.47
2023-05-02T23:28:00.520Z,77.86
2023-05-02T23:30:30.533Z,77.54
2023-05-02T23:33:01.073Z,75.85
2023-05-02T23:35:28.542Z,76.48
2023-05-02T23:37:56.008Z,75.33
2023-05-02T23:40:23.238Z,74.77
2023-05-02T23:42:50.367Z,73.78
2023-05-02T23:45:17.658Z,73.35
2023-05-02T23:47:44.653Z,74.06
2023-05-02T23:50:12.500Z,73.75
2023-05-02T23:52:39.645Z,74.51
2023-05-02T23:55:10.821Z,73.44
2023-05-02T23:57:38.497Z,73.68
